Time;durP1;ratioP1;P1;durP2;ratioP2;P2;SDS_P1;SDS_P2;PMS_P1;PMS_P2;Temp;Humidity;BMP_temperature;BMP_pressure;BME280_temperature;BME280_humidity;BME280_pressure;Samples;Min_cycle;Max_cycle;Signal;HPM_P1;HPM_P2
2023/01/19 00:00:18;;;;;;;33.50;17.33;;;;;;;0.36;100.00;99421.09;5025872;28;20075;-75
2023/01/19 00:02:46;;;;;;;33.20;17.33;;;;;;;0.43;100.00;99427.56;5034119;28;20484;-75
2023/01/19 00:05:12;;;;;;;37.73;19.43;;;;;;;0.43;100.00;99422.25;5033859;28;20020;-75
2023/01/19 00:07:37;;;;;;;43.47;19.10;;;;;;;0.42;100.00;99439.22;5025213;28;20052;-75
2023/01/19 00:10:03;;;;;;;42.73;17.50;;;;;;;0.51;100.00;99430.44;5059513;28;20037;-75
2023/01/19 00:12:29;;;;;;;32.00;17.30;;;;;;;0.63;100.00;99434.72;5022362;28;20073;-75
2023/01/19 00:14:54;;;;;;;38.10;18.40;;;;;;;0.61;100.00;99431.34;5040471;28;20025;-75
2023/01/19 00:17:19;;;;;;;37.87;16.10;;;;;;;0.63;100.00;99429.41;5033198;28;20120;-76
2023/01/19 00:19:45;;;;;;;38.37;16.77;;;;;;;0.59;100.00;99422.66;5033279;28;20056;-75
2023/01/19 00:22:10;;;;;;;35.03;17.17;;;;;;;0.68;100.00;99429.84;5020037;28;20036;-76
2023/01/19 00:24:35;;;;;;;40.70;17.50;;;;;;;0.65;100.00;99427.47;5030075;28;20029;-76
2023/01/19 00:27:02;;;;;;;43.43;17.60;;;;;;;0.63;100.00;99429.41;5038114;28;20045;-75
2023/01/19 00:29:32;;;;;;;40.27;18.70;;;;;;;0.73;100.00;99424.97;5038566;28;20124;-75
2023/01/19 00:32:02;;;;;;;35.90;16.00;;;;;;;0.74;100.00;99421.34;5033423;28;20059;-75
2023/01/19 00:34:35;;;;;;;32.23;17.27;;;;;;;0.74;100.00;99421.34;5029541;28;20029;-75
2023/01/19 00:37:02;;;;;;;40.60;17.40;;;;;;;0.72;100.00;99427.78;5037412;28;20091;-78
2023/01/19 00:39:27;;;;;;;38.40;17.27;;;;;;;0.77;100.00;99426.41;5045671;28;20099;-75
2023/01/19 00:44:36;;;;;;;32.20;16.73;;;;;;;0.84;100.00;99420.53;5039384;28;20120;-75
2023/01/19 00:47:04;;;;;;;38.33;16.60;;;;;;;1.02;100.00;99427.78;5032577;28;20508;-75
2023/01/19 00:49:30;;;;;;;36.90;17.70;;;;;;;0.99;100.00;99419.25;5032516;28;20198;-74
2023/01/19 00:51:55;;;;;;;32.43;16.47;;;;;;;1.11;100.00;99423.50;5029225;28;20107;-75
2023/01/19 00:54:20;;;;;;;41.80;18.27;;;;;;;1.01;100.00;99427.94;5024914;28;20122;-75
2023/01/19 00:56:46;;;;;;;34.23;17.60;;;;;;;0.99;100.00;99420.06;5022750;28;20040;-75
2023/01/19 00:59:11;;;;;;;38.53;17.93;;;;;;;0.96;100.00;99435.47;5043197;28;20029;-74
2023/01/19 01:01:36;;;;;;;55.87;17.60;;;;;;;0.90;100.00;99430.66;5016530;28;20490;-75
2023/01/19 01:04:02;;;;;;;37.67;17.33;;;;;;;1.04;100.00;99427.66;5032107;28;20112;-77
2023/01/19 01:06:27;;;;;;;36.80;17.87;;;;;;;0.98;100.00;99428.22;5025252;28;20033;-76
2023/01/19 01:08:53;;;;;;;34.83;16.47;;;;;;;1.04;100.00;99440.97;5028462;28;20060;-74
2023/01/19 01:11:18;;;;;;;33.70;16.53;;;;;;;1.05;100.00;99440.03;5041339;28;20068;-74
2023/01/19 01:13:43;;;;;;;28.03;16.30;;;;;;;1.10;100.00;99432.44;5031009;28;20032;-75
2023/01/19 01:16:09;;;;;;;29.60;17.03;;;;;;;1.06;100.00;99436.38;5028765;28;20030;-75
2023/01/19 01:18:34;;;;;;;41.40;17.23;;;;;;;1.17;100.00;99433.59;5031895;28;20035;-75
2023/01/19 01:21:04;;;;;;;34.57;16.30;;;;;;;1.29;100.00;99443.19;5032847;28;20037;-75
2023/01/19 01:23:29;;;;;;;34.90;17.07;;;;;;;1.30;100.00;99455.56;5032652;28;20033;-75
2023/01/19 01:25:55;;;;;;;43.77;17.33;;;;;;;1.18;100.00;99440.66;5021832;28;20025;-75
2023/01/19 01:28:20;;;;;;;38.77;17.20;;;;;;;1.15;100.00;99435.56;5044210;28;20114;-75
2023/01/19 01:30:45;;;;;;;33.27;16.93;;;;;;;1.25;100.00;99441.78;5032311;28;20659;-76
2023/01/19 01:33:11;;;;;;;30.70;17.17;;;;;;;1.31;100.00;99435.94;5032540;28;20024;-77
2023/01/19 01:35:36;;;;;;;34.23;16.77;;;;;;;1.33;100.00;99439.28;5023747;28;20106;-75
2023/01/19 01:38:02;;;;;;;45.00;17.07;;;;;;;1.23;100.00;99438.41;5028506;28;20116;-77
2023/01/19 01:40:28;;;;;;;35.33;16.83;;;;;;;1.39;100.00;99442.41;5020049;28;20056;-75
2023/01/19 01:42:54;;;;;;;34.63;17.33;;;;;;;1.31;100.00;99443.94;5050015;28;20052;-75
2023/01/19 01:45:34;;;;;;;40.57;18.50;;;;;;;1.28;100.00;99441.50;5031576;28;20020;-75
2023/01/19 01:48:25;;;;;;;35.60;17.30;;;;;;;1.33;100.00;99441.13;5023490;28;20020;-75
2023/01/19 01:53:47;;;;;;;30.17;15.65;;;;;;;1.38;100.00;99430.06;5041559;28;20271;-75
2023/01/19 01:56:19;;;;;;;32.87;16.90;;;;;;;1.31;100.00;99430.59;5026012;28;20028;-75
2023/01/19 01:58:44;;;;;;;32.17;16.70;;;;;;;1.40;100.00;99425.44;5028269;28;20036;-75
2023/01/19 02:03:56;;;;;;;39.57;16.67;;;;;;;1.45;100.00;99431.19;5056706;28;20099;-75
2023/01/19 02:06:22;;;;;;;36.63;16.30;;;;;;;1.51;100.00;99422.66;5031503;28;20013;-76
2023/01/19 02:14:21;;;;;;;34.57;18.40;;;;;;;1.31;100.00;99425.25;5044810;28;20029;-75
2023/01/19 02:16:47;;;;;;;36.00;15.57;;;;;;;1.39;100.00;99421.06;5035247;28;20111;-75
2023/01/19 02:19:20;;;;;;;28.07;15.07;;;;;;;1.38;100.00;99419.41;5053103;28;20466;-75
2023/01/19 02:22:04;;;;;;;38.67;17.93;;;;;;;1.38;100.00;99414.06;5037927;28;20210;-75
2023/01/19 02:24:30;;;;;;;31.57;14.80;;;;;;;1.54;100.00;99409.03;5055850;28;20461;-75
2023/01/19 02:26:57;;;;;;;36.80;17.23;;;;;;;1.41;100.00;99419.09;5034159;28;20028;-75
2023/01/19 02:29:25;;;;;;;32.10;17.10;;;;;;;1.46;100.00;99416.88;5026305;28;20050;-75
2023/01/19 02:31:51;;;;;;;40.23;19.03;;;;;;;1.55;100.00;99408.06;5016512;28;20026;-75
2023/01/19 02:34:19;;;;;;;29.40;16.03;;;;;;;1.52;100.00;99411.00;5030635;28;20026;-76
2023/01/19 02:36:49;;;;;;;38.60;15.73;;;;;;;1.59;100.00;99412.16;5030258;28;20028;-75
2023/01/19 02:39:19;;;;;;;34.67;16.30;;;;;;;1.59;100.00;99409.47;5026582;28;20029;-75
2023/01/19 02:41:53;;;;;;;37.30;15.70;;;;;;;1.64;100.00;99420.59;5026861;28;20363;-75
2023/01/19 02:44:20;;;;;;;28.63;15.63;;;;;;;1.70;100.00;99411.19;5047764;28;20092;-75
2023/01/19 02:46:45;;;;;;;34.27;15.83;;;;;;;1.76;100.00;99403.47;5030716;28;20025;-75
2023/01/19 02:49:11;;;;;;;30.37;16.33;;;;;;;1.78;100.00;99406.84;5034939;28;20051;-75
2023/01/19 02:51:36;;;;;;;30.13;14.93;;;;;;;1.72;100.00;99418.06;5027237;28;20025;-75
2023/01/19 02:54:32;;;;;;;36.70;16.57;;;;;;;1.76;100.00;99397.28;5032013;28;20467;-75
2023/01/19 02:57:11;;;;;;;28.33;15.83;;;;;;;1.69;100.00;99413.00;5041911;28;20091;-76
2023/01/19 02:59:52;;;;;;;36.57;17.03;;;;;;;1.70;100.00;99414.72;5026871;28;20032;-75
2023/01/19 03:02:32;;;;;;;28.02;13.48;;;;;;;1.82;100.00;99408.22;5030427;28;20124;-75
2023/01/19 03:05:25;;;;;;;31.37;15.87;;;;;;;1.78;100.00;99412.19;5031416;28;20406;-75
2023/01/19 03:07:58;;;;;;;28.23;15.43;;;;;;;1.78;100.00;99412.19;5007775;28;20025;-75
2023/01/19 03:10:50;;;;;;;32.13;15.00;;;;;;;1.77;100.00;99415.84;5027724;28;20060;-75
2023/01/19 03:13:25;;;;;;;36.03;18.27;;;;;;;1.72;100.00;99402.06;5022660;28;20033;-75
2023/01/19 03:15:57;;;;;;;30.30;16.13;;;;;;;1.71;100.00;99411.06;5023951;28;20033;-75
2023/01/19 03:18:25;;;;;;;31.70;17.20;;;;;;;1.76;100.00;99400.81;5034550;28;20089;-75
2023/01/19 03:20:56;;;;;;;31.40;16.70;;;;;;;1.86;100.00;99416.81;5026626;28;20021;-75
2023/01/19 03:23:26;;;;;;;38.43;16.80;;;;;;;1.86;100.00;99415.00;5029126;28;20079;-76
2023/01/19 03:25:55;;;;;;;35.10;19.03;;;;;;;1.83;100.00;99409.94;5023063;28;20025;-76
2023/01/19 03:28:24;;;;;;;35.40;16.87;;;;;;;1.78;100.00;99412.19;5019462;28;20070;-75
2023/01/19 03:31:04;;;;;;;36.30;17.30;;;;;;;1.83;100.00;99409.94;5034025;28;20052;-75
2023/01/19 03:33:34;;;;;;;28.67;15.70;;;;;;;1.92;100.00;99407.44;5034564;28;20021;-76
2023/01/19 03:36:07;;;;;;;32.77;15.47;;;;;;;2.11;100.00;99423.44;5023382;28;20055;-76
2023/01/19 03:38:36;;;;;;;35.83;18.20;;;;;;;1.90;100.00;99412.91;5018950;28;20029;-75
2023/01/19 03:41:05;;;;;;;32.57;17.80;;;;;;;1.85;100.00;99410.66;5014589;28;20029;-76
2023/01/19 03:43:32;;;;;;;30.33;16.93;;;;;;;1.93;100.00;99425.13;5029070;28;20021;-76
2023/01/19 03:45:59;;;;;;;33.77;18.20;;;;;;;1.97;100.00;99413.19;5031689;28;20021;-76
2023/01/19 03:48:25;;;;;;;50.53;17.00;;;;;;;1.96;100.00;99419.53;5037664;28;20051;-76
2023/01/19 03:50:51;;;;;;;30.03;17.97;;;;;;;2.02;100.00;99418.94;5025964;28;20072;-76
2023/01/19 03:53:19;;;;;;;33.57;16.03;;;;;;;1.87;100.00;99415.84;5026000;28;20024;-76
2023/01/19 03:55:46;;;;;;;32.37;16.30;;;;;;;2.00;100.00;99415.56;5031382;28;20070;-76
2023/01/19 03:58:11;;;;;;;34.60;17.57;;;;;;;1.98;100.00;99423.72;5036863;28;20028;-76
2023/01/19 04:00:37;;;;;;;30.97;19.17;;;;;;;2.00;100.00;99426.25;5026640;28;20021;-76
2023/01/19 04:03:04;;;;;;;47.43;19.30;;;;;;;1.92;100.00;99429.63;5034100;28;20048;-76
2023/01/19 04:05:30;;;;;;;28.50;17.40;;;;;;;1.94;100.00;99427.63;5040236;28;20024;-76
2023/01/19 04:07:55;;;;;;;39.10;21.10;;;;;;;1.86;100.00;99422.16;5022075;28;20021;-76
2023/01/19 04:10:21;;;;;;;35.17;18.47;;;;;;;1.93;100.00;99419.78;5014357;28;20462;-76
2023/01/19 04:12:47;;;;;;;36.10;19.03;;;;;;;2.09;100.00;99420.09;5048690;28;20031;-76
2023/01/19 04:15:13;;;;;;;42.90;19.07;;;;;;;2.13;100.00;99426.81;5022893;28;20028;-76
2023/01/19 04:17:39;;;;;;;35.83;20.57;;;;;;;2.01;100.00;99422.59;5033797;28;20027;-77
2023/01/19 04:20:05;;;;;;;28.87;18.40;;;;;;;2.11;100.00;99420.78;5030892;28;20025;-77
2023/01/19 04:22:30;;;;;;;38.13;20.00;;;;;;;1.93;100.00;99409.09;5026772;28;20470;-77
2023/01/19 04:24:56;;;;;;;33.00;18.30;;;;;;;2.04;100.00;99417.00;5022822;28;20028;-78
2023/01/19 04:27:21;;;;;;;30.90;18.80;;;;;;;1.99;100.00;99419.22;5026460;28;20128;-77
2023/01/19 04:29:46;;;;;;;34.80;20.17;;;;;;;2.04;100.00;99427.66;5022602;28;20056;-78
2023/01/19 04:32:13;;;;;;;39.57;20.53;;;;;;;1.95;100.00;99407.13;5051212;28;20021;-77
2023/01/19 04:34:38;;;;;;;39.30;19.87;;;;;;;1.92;100.00;99412.75;5026176;28;20026;-77
2023/01/19 04:37:03;;;;;;;37.43;21.20;;;;;;;1.81;100.00;99417.22;5021286;28;20498;-77
2023/01/19 04:39:29;;;;;;;42.63;21.73;;;;;;;1.89;100.00;99420.06;4999718;28;20415;-77
2023/01/19 04:41:56;;;;;;;40.30;20.50;;;;;;;1.95;100.00;99433.81;5002724;28;20022;-77
2023/01/19 04:44:21;;;;;;;40.50;22.20;;;;;;;1.97;100.00;99415.88;5045015;28;20028;-77
2023/01/19 04:46:47;;;;;;;38.90;21.97;;;;;;;2.00;100.00;99404.91;5026416;28;20021;-78
2023/01/19 04:49:13;;;;;;;44.23;22.57;;;;;;;1.90;100.00;99419.09;5032771;28;20021;-77
2023/01/19 04:51:38;;;;;;;40.60;23.57;;;;;;;1.88;100.00;99418.34;5029869;28;20087;-77
2023/01/19 04:54:04;;;;;;;40.53;23.17;;;;;;;1.86;100.00;99406.16;5022544;28;20025;-77
2023/01/19 04:56:29;;;;;;;43.10;22.10;;;;;;;1.90;100.00;99413.75;5021020;28;20025;-77
2023/01/19 04:58:54;;;;;;;49.40;22.60;;;;;;;1.92;100.00;99418.09;5021234;28;20025;-78
2023/01/19 05:01:19;;;;;;;56.37;23.27;;;;;;;1.93;100.00;99420.63;5050790;28;20025;-77
2023/01/19 05:03:45;;;;;;;43.70;22.87;;;;;;;2.03;100.00;99425.97;5032715;28;20025;-77
2023/01/19 05:06:11;;;;;;;50.63;24.57;;;;;;;1.98;100.00;99422.88;5032520;28;20013;-75
2023/01/19 05:08:36;;;;;;;45.05;21.08;;;;;;;2.04;100.00;99427.66;5017698;28;20025;-75
2023/01/19 05:11:02;;;;;;;47.77;21.60;;;;;;;2.11;100.00;99428.78;5023132;28;20029;-75
2023/01/19 05:13:27;;;;;;;41.75;22.27;;;;;;;2.10;100.00;99429.78;5022704;28;20025;-75
2023/01/19 05:15:52;;;;;;;34.10;21.83;;;;;;;1.95;100.00;99436.50;5031978;28;20021;-77
2023/01/19 05:18:18;;;;;;;39.45;22.00;;;;;;;2.01;100.00;99438.59;5022133;28;20167;-77
2023/01/19 05:20:43;;;;;;;43.20;23.60;;;;;;;2.01;100.00;99427.94;5022081;28;20049;-77
2023/01/19 05:23:09;;;;;;;48.13;22.83;;;;;;;1.98;100.00;99434.41;5018534;28;20041;-77
2023/01/19 05:25:34;;;;;;;42.30;22.37;;;;;;;2.10;100.00;99435.13;5050186;28;20094;-75
2023/01/19 05:27:59;;;;;;;43.13;25.08;;;;;;;2.00;100.00;99447.59;5023617;28;20040;-77
2023/01/19 05:30:25;;;;;;;43.57;24.20;;;;;;;1.90;100.00;99431.59;5032443;28;20053;-77
2023/01/19 05:32:50;;;;;;;43.57;22.30;;;;;;;2.10;100.00;99443.13;5031791;28;20021;-78
2023/01/19 05:35:15;;;;;;;42.55;22.63;;;;;;;1.99;100.00;99441.41;5032584;28;20086;-77
2023/01/19 05:37:41;;;;;;;46.95;21.08;;;;;;;2.21;100.00;99450.97;5035964;28;20025;-77
2023/01/19 05:40:08;;;;;;;38.90;23.10;;;;;;;2.08;100.00;99447.75;5023572;28;20063;-77
2023/01/19 05:42:33;;;;;;;39.97;23.53;;;;;;;2.07;100.00;99446.06;5032314;28;20025;-77
2023/01/19 05:44:58;;;;;;;42.97;25.33;;;;;;;2.08;100.00;99447.75;5031951;28;20020;-77
2023/01/19 05:47:24;;;;;;;50.43;24.77;;;;;;;2.11;100.00;99455.50;5032461;28;20055;-78
2023/01/19 05:49:49;;;;;;;42.23;24.67;;;;;;;2.04;100.00;99459.69;5042398;28;20123;-75
2023/01/19 05:52:15;;;;;;;46.20;26.43;;;;;;;1.98;100.00;99441.56;5019779;28;20031;-75
2023/01/19 05:54:40;;;;;;;50.00;26.88;;;;;;;1.96;100.00;99452.38;5030854;28;20037;-77
2023/01/19 05:57:06;;;;;;;47.90;25.53;;;;;;;1.95;100.00;99445.34;5040855;28;20036;-77
2023/01/19 05:59:31;;;;;;;54.63;27.93;;;;;;;1.88;100.00;99450.38;5040185;28;20466;-78
2023/01/19 06:01:58;;;;;;;44.53;28.38;;;;;;;1.89;100.00;99446.75;5027597;28;20525;-77
2023/01/19 06:04:24;;;;;;;49.00;28.38;;;;;;;1.90;100.00;99443.09;5029651;28;20017;-78
2023/01/19 06:06:50;;;;;;;53.20;29.23;;;;;;;1.85;100.00;99440.00;5029493;28;20021;-75
2023/01/19 06:09:16;;;;;;;49.87;26.97;;;;;;;1.94;100.00;99448.16;5031030;28;20461;-75
2023/01/19 06:11:42;;;;;;;53.87;29.77;;;;;;;1.94;100.00;99453.50;5029411;28;20021;-75
2023/01/19 06:14:09;;;;;;;50.37;28.90;;;;;;;2.02;100.00;99450.97;5026321;28;20103;-75
2023/01/19 06:16:35;;;;;;;50.40;29.10;;;;;;;1.97;100.00;99451.41;5018623;28;20021;-75
2023/01/19 06:19:00;;;;;;;48.17;28.90;;;;;;;2.07;100.00;99454.06;5036060;28;20106;-76
2023/01/19 06:21:25;;;;;;;46.83;28.33;;;;;;;2.05;100.00;99458.72;5028843;28;20025;-75
2023/01/19 06:23:51;;;;;;;44.70;25.60;;;;;;;1.96;100.00;99456.88;5027785;28;20028;-75
2023/01/19 06:26:16;;;;;;;49.70;25.57;;;;;;;2.02;100.00;99445.63;5034972;28;20016;-75
2023/01/19 06:28:41;;;;;;;45.47;27.53;;;;;;;1.96;100.00;99457.72;5029720;28;20443;-75
2023/01/19 06:31:07;;;;;;;42.90;27.07;;;;;;;1.94;100.00;99458.81;5033884;28;20040;-75
2023/01/19 06:33:32;;;;;;;46.53;27.90;;;;;;;1.85;100.00;99456.00;5024533;28;20031;-75
2023/01/19 06:35:58;;;;;;;45.07;27.47;;;;;;;2.06;100.00;99452.38;5033907;28;20028;-76
2023/01/19 06:38:24;;;;;;;44.83;25.38;;;;;;;1.95;100.00;99456.00;5021740;28;20025;-75
2023/01/19 06:40:57;;;;;;;48.37;27.70;;;;;;;1.75;100.00;99460.47;5033228;28;20375;-75
2023/01/19 06:43:23;;;;;;;40.17;26.30;;;;;;;1.86;100.00;99463.03;5053578;28;20024;-76
2023/01/19 06:45:49;;;;;;;36.60;24.93;;;;;;;1.79;100.00;99456.56;5029039;28;20025;-76
2023/01/19 06:48:15;;;;;;;40.60;25.63;;;;;;;1.89;100.00;99473.44;5032167;28;20574;-76
2023/01/19 06:50:43;;;;;;;45.07;26.33;;;;;;;2.02;100.00;99472.31;5019644;28;20025;-77
2023/01/19 06:53:09;;;;;;;43.37;28.07;;;;;;;1.86;100.00;99476.38;5023541;28;20029;-76
2023/01/19 06:55:35;;;;;;;46.13;28.37;;;;;;;1.96;100.00;99475.56;5018749;28;20022;-75
2023/01/19 06:58:00;;;;;;;45.20;26.47;;;;;;;2.00;100.00;99474.28;5053190;28;20037;-75
2023/01/19 07:00:26;;;;;;;43.50;26.13;;;;;;;1.94;100.00;99483.69;5029190;28;20197;-75
2023/01/19 07:02:51;;;;;;;43.97;28.73;;;;;;;1.79;100.00;99488.56;5027905;28;20032;-79
2023/01/19 07:05:17;;;;;;;46.73;26.87;;;;;;;1.92;100.00;99498.16;5042723;28;20013;-75
2023/01/19 07:07:43;;;;;;;44.23;25.23;;;;;;;1.89;100.00;99508.13;5033104;28;20031;-76
2023/01/19 07:10:11;;;;;;;45.97;25.50;;;;;;;2.01;100.00;99491.97;5031819;28;20071;-75
2023/01/19 07:12:37;;;;;;;37.57;25.67;;;;;;;2.00;100.00;99506.31;5037554;28;20024;-75
2023/01/19 07:15:04;;;;;;;44.00;28.37;;;;;;;1.85;100.00;99514.72;5025680;28;20025;-75
2023/01/19 07:17:29;;;;;;;39.10;26.30;;;;;;;1.81;100.00;99518.63;5032263;28;20025;-75
2023/01/19 07:19:54;;;;;;;47.10;28.87;;;;;;;1.82;100.00;99522.97;5027917;28;20030;-76
2023/01/19 07:22:20;;;;;;;41.80;26.00;;;;;;;1.89;100.00;99526.81;5021435;28;20036;-77
2023/01/19 07:24:45;;;;;;;45.77;27.20;;;;;;;1.99;100.00;99520.66;5020959;28;20029;-76
2023/01/19 07:27:11;;;;;;;51.17;28.60;;;;;;;1.99;100.00;99536.66;5027488;28;20043;-76
2023/01/19 07:29:36;;;;;;;41.87;28.33;;;;;;;1.93;100.00;99551.41;5026854;28;20378;-77
2023/01/19 07:32:02;;;;;;;38.93;25.07;;;;;;;2.02;100.00;99541.72;5029111;28;20018;-75
2023/01/19 07:34:28;;;;;;;43.57;26.97;;;;;;;2.00;100.00;99549.03;5031554;28;20083;-76
2023/01/19 07:36:54;;;;;;;42.17;27.37;;;;;;;2.08;100.00;99552.69;5028724;28;20113;-77
2023/01/19 07:39:20;;;;;;;43.53;27.97;;;;;;;2.20;100.00;99556.09;5024094;28;20021;-73
2023/01/19 07:41:47;;;;;;;43.97;28.60;;;;;;;2.25;100.00;99564.53;5025580;28;20075;-73
2023/01/19 07:44:12;;;;;;;44.55;29.75;;;;;;;2.08;100.00;99562.53;5034357;28;20021;-74
2023/01/19 07:46:37;;;;;;;45.80;29.57;;;;;;;2.09;100.00;99569.59;5028775;28;20021;-74
2023/01/19 07:49:03;;;;;;;51.27;29.00;;;;;;;2.20;100.00;99566.78;5039511;28;20036;-75
2023/01/19 07:51:28;;;;;;;50.87;30.83;;;;;;;2.07;100.00;99572.38;5015334;28;20091;-77
2023/01/19 07:53:53;;;;;;;50.75;31.45;;;;;;;2.22;100.00;99575.50;5021996;28;20033;-74
2023/01/19 07:56:19;;;;;;;50.30;33.43;;;;;;;1.99;100.00;99574.88;5011673;28;20119;-78
2023/01/19 07:58:45;;;;;;;50.80;30.40;;;;;;;2.13;100.00;99573.66;5022100;28;20025;-75
2023/01/19 08:01:12;;;;;;;54.27;34.67;;;;;;;2.01;100.00;99572.06;5023363;28;20071;-78
2023/01/19 08:03:38;;;;;;;57.97;33.50;;;;;;;2.12;100.00;99590.66;5027781;28;20070;-74
2023/01/19 08:06:04;;;;;;;58.03;33.20;;;;;;;2.11;100.00;99588.97;5024793;28;20108;-75
2023/01/19 08:08:31;;;;;;;60.23;36.43;;;;;;;2.04;100.00;99587.81;5042685;28;20025;-76
2023/01/19 08:10:57;;;;;;;54.27;33.87;;;;;;;2.29;100.00;99592.69;5044701;28;20013;-75
2023/01/19 08:13:23;;;;;;;62.30;33.03;;;;;;;2.19;100.00;99597.13;5014550;28;20043;-78
2023/01/19 08:15:53;;;;;;;49.57;31.60;;;;;;;2.00;100.00;99591.72;5033579;28;20022;-75
2023/01/19 08:18:18;;;;;;;51.53;32.57;;;;;;;1.98;100.00;99589.19;5025251;28;20041;-75
2023/01/19 08:20:45;;;;;;;53.47;31.67;;;;;;;2.00;100.00;99597.06;5050023;28;20045;-78
2023/01/19 08:24:00;;;;;;;62.73;35.93;;;;;;;2.07;100.00;99595.53;5029920;28;20174;-75
2023/01/19 08:26:57;;;;;;;50.10;29.20;;;;;;;2.03;100.00;99599.47;5031147;28;20554;-75
2023/01/19 08:29:22;;;;;;;50.63;31.30;;;;;;;2.11;100.00;99610.31;5015449;28;20025;-77
2023/01/19 08:31:48;;;;;;;48.53;31.52;;;;;;;2.08;100.00;99605.25;5032612;28;20021;-75
2023/01/19 08:34:13;;;;;;;53.93;30.83;;;;;;;2.09;100.00;99590.94;5028836;28;20033;-75
2023/01/19 08:36:39;;;;;;;50.40;30.70;;;;;;;2.20;100.00;99604.16;5022568;28;20017;-78
2023/01/19 08:39:04;;;;;;;60.30;34.83;;;;;;;2.39;100.00;99609.56;5043797;28;20104;-76
2023/01/19 08:41:29;;;;;;;53.05;31.55;;;;;;;2.10;100.00;99608.63;5024691;28;20113;-75
2023/01/19 08:43:55;;;;;;;49.97;28.80;;;;;;;2.11;100.00;99610.31;5028763;28;20031;-75
2023/01/19 08:46:20;;;;;;;49.37;30.43;;;;;;;2.33;100.00;99620.78;5017586;28;20037;-75
2023/01/19 08:48:49;;;;;;;48.17;27.80;;;;;;;2.08;100.00;99623.94;5026745;28;20075;-76
2023/01/19 08:51:15;;;;;;;53.30;28.10;;;;;;;2.21;100.00;99621.88;5044877;28;20020;-74
2023/01/19 08:53:41;;;;;;;55.33;31.70;;;;;;;2.14;100.00;99615.38;5022133;28;20047;-74
2023/01/19 08:56:11;;;;;;;53.07;31.40;;;;;;;2.26;100.00;99624.97;5039214;28;20138;-74
2023/01/19 08:58:44;;;;;;;54.87;30.73;;;;;;;2.20;100.00;99625.53;5021818;28;20028;-74
2023/01/19 09:01:15;;;;;;;46.60;26.57;;;;;;;2.26;100.00;99635.66;5010694;28;20036;-75
2023/01/19 09:03:41;;;;;;;43.50;27.15;;;;;;;2.20;100.00;99620.19;5011714;28;20179;-74
2023/01/19 09:06:08;;;;;;;48.57;27.53;;;;;;;2.37;100.00;99638.22;5023451;28;20542;-74
2023/01/19 09:08:33;;;;;;;51.73;33.63;;;;;;;2.18;100.00;99643.50;5028528;28;20453;-74
2023/01/19 09:10:59;;;;;;;47.70;30.10;;;;;;;2.31;100.00;99638.78;5027216;28;20032;-74
2023/01/19 09:13:24;;;;;;;51.80;31.70;;;;;;;2.22;100.00;99639.59;5035310;28;20045;-74
2023/01/19 09:15:51;;;;;;;57.87;31.53;;;;;;;2.24;100.00;99648.31;5011614;28;20032;-74
2023/01/19 09:18:19;;;;;;;50.23;32.10;;;;;;;2.21;100.00;99639.72;5039725;28;20145;-75
2023/01/19 09:20:46;;;;;;;51.63;31.67;;;;;;;2.15;100.00;99638.44;5009277;28;20113;-74
2023/01/19 09:23:14;;;;;;;49.55;30.50;;;;;;;2.28;100.00;99644.41;5029520;28;20033;-75
2023/01/19 09:25:42;;;;;;;52.28;31.67;;;;;;;2.32;100.00;99644.97;5011255;28;20056;-75
2023/01/19 09:28:09;;;;;;;51.33;31.67;;;;;;;2.30;100.00;99647.78;5018527;28;20033;-74
2023/01/19 09:30:37;;;;;;;47.43;25.63;;;;;;;2.37;100.00;99654.25;5017285;28;20028;-75
2023/01/19 09:33:05;;;;;;;53.50;31.48;;;;;;;2.26;100.00;99662.38;5023185;28;20116;-75
2023/01/19 09:35:34;;;;;;;57.20;33.58;;;;;;;2.22;100.00;99676.09;5015930;28;20018;-74
2023/01/19 09:37:59;;;;;;;68.63;34.83;;;;;;;2.26;100.00;99666.88;5011715;28;20041;-74
2023/01/19 09:40:25;;;;;;;61.05;35.63;;;;;;;2.21;100.00;99669.94;5032136;28;20028;-74
2023/01/19 09:43:12;;;;;;;61.60;38.37;;;;;;;2.14;100.00;99668.78;5022205;28;20044;-73
2023/01/19 09:45:57;;;;;;;60.43;32.67;;;;;;;2.29;100.00;99675.47;5027239;28;20131;-74
2023/01/19 09:48:25;;;;;;;66.83;37.93;;;;;;;2.11;100.00;99677.06;5017805;28;20021;-74
2023/01/19 09:50:54;;;;;;;70.03;41.53;;;;;;;2.13;100.00;99678.63;5024669;28;20025;-74
2023/01/19 09:53:32;;;;;;;66.18;37.55;;;;;;;2.12;100.00;99676.09;5023892;28;20078;-73
2023/01/19 09:55:58;;;;;;;70.70;39.80;;;;;;;2.17;100.00;99689.88;5020984;28;20076;-75
2023/01/19 09:58:23;;;;;;;69.53;40.55;;;;;;;2.17;100.00;99685.38;5009693;28;20041;-75
2023/01/19 10:01:01;;;;;;;56.20;33.23;;;;;;;2.25;100.00;99691.88;5020457;28;20017;-75
2023/01/19 10:03:27;;;;;;;58.75;34.22;;;;;;;2.27;100.00;99689.91;5024678;28;20037;-74
2023/01/19 10:06:02;;;;;;;54.28;35.40;;;;;;;2.21;100.00;99691.28;5017631;28;20036;-74
2023/01/19 10:08:54;;;;;;;61.72;36.25;;;;;;;2.20;100.00;99694.94;5024587;28;20064;-75
2023/01/19 10:11:35;;;;;;;60.05;34.78;;;;;;;2.30;100.00;99695.84;5005705;28;20029;-75
2023/01/19 10:14:18;;;;;;;61.25;34.00;;;;;;;2.54;100.00;99698.16;5005982;28;20045;-75
2023/01/19 10:17:00;;;;;;;64.80;34.72;;;;;;;2.59;100.00;99703.09;5008647;28;20026;-74
2023/01/19 10:19:30;;;;;;;56.22;31.88;;;;;;;2.61;100.00;99698.50;5013409;28;20029;-75
2023/01/19 10:21:59;;;;;;;56.20;32.22;;;;;;;2.56;100.00;99711.41;5024898;28;20029;-74
2023/01/19 10:24:41;;;;;;;57.30;34.55;;;;;;;2.47;100.00;99706.84;5014967;28;20135;-74
2023/01/19 10:27:19;;;;;;;58.75;30.90;;;;;;;2.48;100.00;99704.06;5022901;28;20083;-75
2023/01/19 10:29:48;;;;;;;48.85;29.45;;;;;;;2.50;100.00;99701.25;5032934;28;20112;-75
2023/01/19 10:32:20;;;;;;;48.85;27.48;;;;;;;2.57;100.00;99713.09;5025094;28;20453;-75
2023/01/19 10:34:46;;;;;;;53.17;30.67;;;;;;;2.55;100.00;99709.72;5021965;28;20052;-74
2023/01/19 10:37:36;;;;;;;46.65;29.38;;;;;;;2.55;100.00;99707.03;5026197;28;20111;-75
2023/01/19 10:40:08;;;;;;;45.15;27.50;;;;;;;2.58;100.00;99714.78;5018540;28;20037;-75
2023/01/19 10:42:34;;;;;;;45.15;26.38;;;;;;;2.65;100.00;99719.44;5017924;28;20028;-75
2023/01/19 10:44:59;;;;;;;50.63;27.77;;;;;;;2.67;100.00;99724.63;5018236;28;20025;-75
2023/01/19 10:47:35;;;;;;;50.25;28.10;;;;;;;2.65;100.00;99707.91;5015277;28;20037;-75
2023/01/19 10:50:23;;;;;;;52.00;27.73;;;;;;;2.59;100.00;99716.47;5031276;28;20047;-75
2023/01/19 10:52:50;;;;;;;57.13;26.98;;;;;;;2.85;100.00;99720.34;5018076;28;20037;-75
2023/01/19 10:55:24;;;;;;;42.53;26.42;;;;;;;2.97;100.00;99727.25;5021753;28;20036;-75
2023/01/19 10:57:51;;;;;;;46.40;27.50;;;;;;;2.87;100.00;99731.75;5045287;28;20496;-75
2023/01/19 11:00:38;;;;;;;41.65;26.02;;;;;;;2.89;100.00;99721.75;5019049;28;20018;-75
2023/01/19 11:03:22;;;;;;;40.60;25.80;;;;;;;2.63;100.00;99739.28;5023683;28;20116;-74
2023/01/19 11:05:47;;;;;;;40.25;23.90;;;;;;;2.55;100.00;99739.09;5019490;28;20087;-75
2023/01/19 11:08:29;;;;;;;37.03;23.58;;;;;;;2.55;100.00;99737.28;5029562;28;20025;-75
2023/01/19 11:11:02;;;;;;;39.35;23.55;;;;;;;2.66;100.00;99739.81;5007161;28;20396;-74
2023/01/19 11:13:27;;;;;;;41.50;24.27;;;;;;;2.67;100.00;99741.53;5016572;28;20050;-74
2023/01/19 11:15:59;;;;;;;39.50;24.48;;;;;;;2.60;100.00;99739.53;5014251;28;20037;-74
2023/01/19 11:18:30;;;;;;;46.40;26.75;;;;;;;2.54;100.00;99732.03;5030072;28;20029;-76
2023/01/19 11:21:02;;;;;;;41.83;27.33;;;;;;;2.60;100.00;99736.84;5024600;28;20021;-74
2023/01/19 11:23:40;;;;;;;45.08;28.38;;;;;;;2.55;100.00;99741.78;5045597;28;20028;-74
2023/01/19 11:26:07;;;;;;;44.17;26.08;;;;;;;2.55;100.00;99741.78;5027465;28;20059;-74
2023/01/19 11:28:36;;;;;;;53.95;27.77;;;;;;;2.57;100.00;99739.81;5022083;28;20049;-75
2023/01/19 11:31:16;;;;;;;45.72;27.98;;;;;;;2.59;100.00;99738.69;5031756;28;20021;-74
2023/01/19 11:33:50;;;;;;;50.38;31.40;;;;;;;2.69;100.00;99747.59;5019555;28;20112;-74
2023/01/19 11:36:25;;;;;;;47.35;27.65;;;;;;;2.63;100.00;99744.63;5008871;28;20049;-74